sensor_id;sensor_type;location;lat;lon;timestamp;temperature;humidity
39519;DHT22;25200;53.394;10.414;2024-01-30T00:01:02;2.90;94.10
39519;DHT22;25200;53.394;10.414;2024-01-30T00:03:28;3.00;94.20
39519;DHT22;25200;53.394;10.414;2024-01-30T00:05:55;2.90;94.30
39519;DHT22;25200;53.394;10.414;2024-01-30T00:08:20;2.90;94.20
39519;DHT22;25200;53.394;10.414;2024-01-30T00:10:46;2.90;94.30
39519;DHT22;25200;53.394;10.414;2024-01-30T00:13:12;2.90;94.20
39519;DHT22;25200;53.394;10.414;2024-01-30T00:15:39;2.90;94.30
39519;DHT22;25200;53.394;10.414;2024-01-30T00:18:05;2.90;94.40
39519;DHT22;25200;53.394;10.414;2024-01-30T00:20:30;2.90;94.20
39519;DHT22;25200;53.394;10.414;2024-01-30T00:22:56;2.90;94.10
39519;DHT22;25200;53.394;10.414;2024-01-30T00:25:21;2.90;94.40
39519;DHT22;25200;53.394;10.414;2024-01-30T00:27:47;2.90;94.10
39519;DHT22;25200;53.394;10.414;2024-01-30T00:30:13;2.90;94.30
39519;DHT22;25200;53.394;10.414;2024-01-30T00:32:39;2.90;94.30
39519;DHT22;25200;53.394;10.414;2024-01-30T00:35:05;2.80;94.10
39519;DHT22;25200;53.394;10.414;2024-01-30T00:37:30;2.80;94.40
39519;DHT22;25200;53.394;10.414;2024-01-30T00:39:57;2.80;94.40
39519;DHT22;25200;53.394;10.414;2024-01-30T00:42:22;2.80;94.20
39519;DHT22;25200;53.394;10.414;2024-01-30T00:44:49;2.80;94.40
39519;DHT22;25200;53.394;10.414;2024-01-30T00:47:15;2.80;94.40
39519;DHT22;25200;53.394;10.414;2024-01-30T00:49:40;2.80;94.60
39519;DHT22;25200;53.394;10.414;2024-01-30T00:52:06;2.80;94.40
39519;DHT22;25200;53.394;10.414;2024-01-30T00:54:32;2.80;94.20
39519;DHT22;25200;53.394;10.414;2024-01-30T00:56:57;2.80;94.10
39519;DHT22;25200;53.394;10.414;2024-01-30T00:59:23;2.80;94.30
39519;DHT22;25200;53.394;10.414;2024-01-30T01:01:49;2.80;94.10
39519;DHT22;25200;53.394;10.414;2024-01-30T01:04:16;2.80;94.10
39519;DHT22;25200;53.394;10.414;2024-01-30T01:06:42;2.80;94.00
39519;DHT22;25200;53.394;10.414;2024-01-30T01:09:12;2.80;94.20
39519;DHT22;25200;53.394;10.414;2024-01-30T01:11:38;2.80;94.30
39519;DHT22;25200;53.394;10.414;2024-01-30T01:14:04;2.80;94.20
39519;DHT22;25200;53.394;10.414;2024-01-30T01:16:30;2.80;94.10
39519;DHT22;25200;53.394;10.414;2024-01-30T01:18:56;2.80;94.10
39519;DHT22;25200;53.394;10.414;2024-01-30T01:21:22;2.70;94.20
39519;DHT22;25200;53.394;10.414;2024-01-30T01:23:48;2.80;94.30
39519;DHT22;25200;53.394;10.414;2024-01-30T01:26:14;2.70;94.20
39519;DHT22;25200;53.394;10.414;2024-01-30T01:28:41;2.70;94.40
39519;DHT22;25200;53.394;10.414;2024-01-30T01:31:06;2.70;94.20
39519;DHT22;25200;53.394;10.414;2024-01-30T01:33:32;2.70;94.10
39519;DHT22;25200;53.394;10.414;2024-01-30T01:35:59;2.80;94.10
39519;DHT22;25200;53.394;10.414;2024-01-30T01:38:25;2.80;94.10
39519;DHT22;25200;53.394;10.414;2024-01-30T01:40:50;2.80;94.10
39519;DHT22;25200;53.394;10.414;2024-01-30T01:43:16;2.80;94.00
39519;DHT22;25200;53.394;10.414;2024-01-30T01:45:42;2.80;94.10
39519;DHT22;25200;53.394;10.414;2024-01-30T01:48:08;2.80;94.00
39519;DHT22;25200;53.394;10.414;2024-01-30T01:50:35;2.80;93.90
39519;DHT22;25200;53.394;10.414;2024-01-30T01:53:01;2.90;93.90
39519;DHT22;25200;53.394;10.414;2024-01-30T01:55:29;2.80;93.90
39519;DHT22;25200;53.394;10.414;2024-01-30T01:57:56;2.90;93.90
39519;DHT22;25200;53.394;10.414;2024-01-30T02:00:23;2.80;93.90
39519;DHT22;25200;53.394;10.414;2024-01-30T02:02:49;2.80;93.90
39519;DHT22;25200;53.394;10.414;2024-01-30T02:05:16;2.80;93.90
39519;DHT22;25200;53.394;10.414;2024-01-30T02:07:42;2.80;93.80
39519;DHT22;25200;53.394;10.414;2024-01-30T02:10:09;2.80;93.90
39519;DHT22;25200;53.394;10.414;2024-01-30T02:12:37;2.80;93.90
39519;DHT22;25200;53.394;10.414;2024-01-30T02:15:04;2.80;93.90
39519;DHT22;25200;53.394;10.414;2024-01-30T02:17:30;2.80;93.80
39519;DHT22;25200;53.394;10.414;2024-01-30T02:19:57;2.80;93.90
39519;DHT22;25200;53.394;10.414;2024-01-30T02:22:22;2.80;93.80
39519;DHT22;25200;53.394;10.414;2024-01-30T02:24:49;2.80;93.80
39519;DHT22;25200;53.394;10.414;2024-01-30T02:27:15;2.80;93.80
39519;DHT22;25200;53.394;10.414;2024-01-30T02:29:40;2.80;93.80
39519;DHT22;25200;53.394;10.414;2024-01-30T02:32:06;2.80;93.80
39519;DHT22;25200;53.394;10.414;2024-01-30T02:34:33;2.80;93.80
39519;DHT22;25200;53.394;10.414;2024-01-30T02:36:59;2.80;93.80
39519;DHT22;25200;53.394;10.414;2024-01-30T02:39:24;2.80;93.80
39519;DHT22;25200;53.394;10.414;2024-01-30T02:41:50;2.80;93.80
39519;DHT22;25200;53.394;10.414;2024-01-30T02:44:16;2.80;93.80
39519;DHT22;25200;53.394;10.414;2024-01-30T02:46:42;2.80;93.90
39519;DHT22;25200;53.394;10.414;2024-01-30T02:49:07;2.80;93.80
39519;DHT22;25200;53.394;10.414;2024-01-30T02:51:33;2.80;93.90
39519;DHT22;25200;53.394;10.414;2024-01-30T02:53:59;2.80;93.90
39519;DHT22;25200;53.394;10.414;2024-01-30T02:56:24;2.80;93.90
39519;DHT22;25200;53.394;10.414;2024-01-30T02:58:50;2.80;93.80
39519;DHT22;25200;53.394;10.414;2024-01-30T03:01:16;2.80;93.80
39519;DHT22;25200;53.394;10.414;2024-01-30T03:03:41;2.80;93.80
39519;DHT22;25200;53.394;10.414;2024-01-30T03:06:08;2.80;93.80
39519;DHT22;25200;53.394;10.414;2024-01-30T03:08:34;2.80;93.80
39519;DHT22;25200;53.394;10.414;2024-01-30T03:11:00;2.80;93.80
39519;DHT22;25200;53.394;10.414;2024-01-30T03:13:26;2.80;93.80
39519;DHT22;25200;53.394;10.414;2024-01-30T03:15:52;2.90;93.90
39519;DHT22;25200;53.394;10.414;2024-01-30T03:18:19;2.80;94.10
39519;DHT22;25200;53.394;10.414;2024-01-30T03:20:44;2.80;93.80
39519;DHT22;25200;53.394;10.414;2024-01-30T03:23:10;2.80;93.80
39519;DHT22;25200;53.394;10.414;2024-01-30T03:25:36;2.80;93.90
39519;DHT22;25200;53.394;10.414;2024-01-30T03:28:01;2.80;93.80
39519;DHT22;25200;53.394;10.414;2024-01-30T03:30:27;2.80;93.90
39519;DHT22;25200;53.394;10.414;2024-01-30T03:32:52;2.80;93.90
39519;DHT22;25200;53.394;10.414;2024-01-30T03:35:19;2.80;93.80
39519;DHT22;25200;53.394;10.414;2024-01-30T03:37:44;2.80;93.90
39519;DHT22;25200;53.394;10.414;2024-01-30T03:40:10;2.80;93.80
39519;DHT22;25200;53.394;10.414;2024-01-30T03:42:36;2.80;93.90
39519;DHT22;25200;53.394;10.414;2024-01-30T03:45:02;2.90;93.90
39519;DHT22;25200;53.394;10.414;2024-01-30T03:47:28;2.90;93.90
39519;DHT22;25200;53.394;10.414;2024-01-30T03:49:53;2.90;93.90
39519;DHT22;25200;53.394;10.414;2024-01-30T03:52:19;2.90;93.90
39519;DHT22;25200;53.394;10.414;2024-01-30T03:54:45;2.90;93.90
39519;DHT22;25200;53.394;10.414;2024-01-30T03:57:10;2.80;93.90
39519;DHT22;25200;53.394;10.414;2024-01-30T03:59:36;2.80;93.80
39519;DHT22;25200;53.394;10.414;2024-01-30T04:02:02;2.80;93.80
39519;DHT22;25200;53.394;10.414;2024-01-30T04:04:28;2.80;93.90
39519;DHT22;25200;53.394;10.414;2024-01-30T04:06:53;2.80;93.80
39519;DHT22;25200;53.394;10.414;2024-01-30T04:09:19;2.90;93.90
39519;DHT22;25200;53.394;10.414;2024-01-30T04:11:44;2.90;93.90
39519;DHT22;25200;53.394;10.414;2024-01-30T04:14:10;2.90;93.80
39519;DHT22;25200;53.394;10.414;2024-01-30T04:16:36;2.90;93.80
39519;DHT22;25200;53.394;10.414;2024-01-30T04:19:02;2.80;93.80
39519;DHT22;25200;53.394;10.414;2024-01-30T04:21:27;2.80;93.80
39519;DHT22;25200;53.394;10.414;2024-01-30T04:23:53;2.80;93.80
39519;DHT22;25200;53.394;10.414;2024-01-30T04:26:19;2.90;93.80
39519;DHT22;25200;53.394;10.414;2024-01-30T04:28:45;2.80;93.80
39519;DHT22;25200;53.394;10.414;2024-01-30T04:31:11;2.80;93.80
39519;DHT22;25200;53.394;10.414;2024-01-30T04:33:36;2.80;93.80
39519;DHT22;25200;53.394;10.414;2024-01-30T04:36:02;2.80;93.90
39519;DHT22;25200;53.394;10.414;2024-01-30T04:38:29;2.80;93.90
39519;DHT22;25200;53.394;10.414;2024-01-30T04:40:54;2.80;93.80
39519;DHT22;25200;53.394;10.414;2024-01-30T04:43:20;2.80;93.90
39519;DHT22;25200;53.394;10.414;2024-01-30T04:45:47;2.80;94.10
39519;DHT22;25200;53.394;10.414;2024-01-30T04:48:12;2.80;93.90
39519;DHT22;25200;53.394;10.414;2024-01-30T04:50:38;2.80;93.90
39519;DHT22;25200;53.394;10.414;2024-01-30T04:53:03;2.80;93.90
39519;DHT22;25200;53.394;10.414;2024-01-30T04:55:29;2.80;93.90
39519;DHT22;25200;53.394;10.414;2024-01-30T04:57:55;2.80;93.90
39519;DHT22;25200;53.394;10.414;2024-01-30T05:00:20;2.80;93.90
39519;DHT22;25200;53.394;10.414;2024-01-30T05:02:46;2.80;93.90
39519;DHT22;25200;53.394;10.414;2024-01-30T05:05:11;2.80;94.00
39519;DHT22;25200;53.394;10.414;2024-01-30T05:07:40;2.80;93.90
39519;DHT22;25200;53.394;10.414;2024-01-30T05:10:06;2.80;93.90
39519;DHT22;25200;53.394;10.414;2024-01-30T05:12:32;2.80;93.90
39519;DHT22;25200;53.394;10.414;2024-01-30T05:14:58;2.80;93.90
39519;DHT22;25200;53.394;10.414;2024-01-30T05:17:23;2.80;93.90
39519;DHT22;25200;53.394;10.414;2024-01-30T05:19:49;2.80;93.90
39519;DHT22;25200;53.394;10.414;2024-01-30T05:22:14;2.80;93.90
39519;DHT22;25200;53.394;10.414;2024-01-30T05:24:41;2.80;93.80
39519;DHT22;25200;53.394;10.414;2024-01-30T05:27:10;2.80;93.90
39519;DHT22;25200;53.394;10.414;2024-01-30T05:29:38;2.80;93.80
39519;DHT22;25200;53.394;10.414;2024-01-30T05:32:04;2.70;93.80
39519;DHT22;25200;53.394;10.414;2024-01-30T05:34:31;2.70;93.80
39519;DHT22;25200;53.394;10.414;2024-01-30T05:36:57;2.70;93.80
39519;DHT22;25200;53.394;10.414;2024-01-30T05:39:22;2.70;93.80
39519;DHT22;25200;53.394;10.414;2024-01-30T05:41:48;2.70;93.80
39519;DHT22;25200;53.394;10.414;2024-01-30T05:44:13;2.70;93.80
39519;DHT22;25200;53.394;10.414;2024-01-30T05:46:39;2.70;93.80
39519;DHT22;25200;53.394;10.414;2024-01-30T05:49:05;2.60;93.70
39519;DHT22;25200;53.394;10.414;2024-01-30T05:51:31;2.60;93.80
39519;DHT22;25200;53.394;10.414;2024-01-30T05:53:57;2.60;93.80
39519;DHT22;25200;53.394;10.414;2024-01-30T05:56:22;2.70;93.80
39519;DHT22;25200;53.394;10.414;2024-01-30T05:58:48;2.60;93.80
39519;DHT22;25200;53.394;10.414;2024-01-30T06:01:16;2.60;93.80
39519;DHT22;25200;53.394;10.414;2024-01-30T06:03:41;2.60;93.80
39519;DHT22;25200;53.394;10.414;2024-01-30T06:06:09;2.60;93.80
39519;DHT22;25200;53.394;10.414;2024-01-30T06:08:34;2.60;93.80
39519;DHT22;25200;53.394;10.414;2024-01-30T06:11:00;2.60;93.80
39519;DHT22;25200;53.394;10.414;2024-01-30T06:13:26;2.60;93.80
39519;DHT22;25200;53.394;10.414;2024-01-30T06:15:52;2.60;93.80
39519;DHT22;25200;53.394;10.414;2024-01-30T06:18:18;2.60;93.90
39519;DHT22;25200;53.394;10.414;2024-01-30T06:20:43;2.60;93.80
39519;DHT22;25200;53.394;10.414;2024-01-30T06:23:09;2.60;93.90
39519;DHT22;25200;53.394;10.414;2024-01-30T06:25:35;2.60;93.90
39519;DHT22;25200;53.394;10.414;2024-01-30T06:28:01;2.60;93.90
39519;DHT22;25200;53.394;10.414;2024-01-30T06:30:27;2.60;93.80
39519;DHT22;25200;53.394;10.414;2024-01-30T06:32:52;2.60;93.90
39519;DHT22;25200;53.394;10.414;2024-01-30T06:35:18;2.60;93.90
39519;DHT22;25200;53.394;10.414;2024-01-30T06:37:43;2.70;93.90
39519;DHT22;25200;53.394;10.414;2024-01-30T06:40:09;2.60;93.90
39519;DHT22;25200;53.394;10.414;2024-01-30T06:42:35;2.60;93.80
39519;DHT22;25200;53.394;10.414;2024-01-30T06:45:01;2.60;93.80
39519;DHT22;25200;53.394;10.414;2024-01-30T06:47:26;2.60;93.80
39519;DHT22;25200;53.394;10.414;2024-01-30T06:49:52;2.60;93.80
39519;DHT22;25200;53.394;10.414;2024-01-30T06:52:18;2.60;93.80
39519;DHT22;25200;53.394;10.414;2024-01-30T06:54:43;2.60;93.80
39519;DHT22;25200;53.394;10.414;2024-01-30T06:57:09;2.70;93.90
39519;DHT22;25200;53.394;10.414;2024-01-30T06:59:37;2.60;93.80
39519;DHT22;25200;53.394;10.414;2024-01-30T07:02:09;2.60;93.80
39519;DHT22;25200;53.394;10.414;2024-01-30T07:04:35;2.70;93.80
39519;DHT22;25200;53.394;10.414;2024-01-30T07:07:02;2.70;93.90
39519;DHT22;25200;53.394;10.414;2024-01-30T07:09:30;2.70;93.80
39519;DHT22;25200;53.394;10.414;2024-01-30T07:11:56;2.70;93.80
39519;DHT22;25200;53.394;10.414;2024-01-30T07:14:24;2.70;93.80
39519;DHT22;25200;53.394;10.414;2024-01-30T07:16:49;2.70;93.80
39519;DHT22;25200;53.394;10.414;2024-01-30T07:19:15;2.70;93.80
39519;DHT22;25200;53.394;10.414;2024-01-30T07:21:41;2.70;93.80
39519;DHT22;25200;53.394;10.414;2024-01-30T07:24:07;2.70;93.80
39519;DHT22;25200;53.394;10.414;2024-01-30T07:26:32;2.70;93.80
39519;DHT22;25200;53.394;10.414;2024-01-30T07:28:58;2.70;93.80
39519;DHT22;25200;53.394;10.414;2024-01-30T07:31:23;2.70;93.80
39519;DHT22;25200;53.394;10.414;2024-01-30T07:33:49;2.80;93.80
39519;DHT22;25200;53.394;10.414;2024-01-30T07:36:15;2.80;93.80
39519;DHT22;25200;53.394;10.414;2024-01-30T07:38:40;2.80;93.80
39519;DHT22;25200;53.394;10.414;2024-01-30T07:41:06;2.80;93.90
39519;DHT22;25200;53.394;10.414;2024-01-30T07:43:35;2.80;93.80
39519;DHT22;25200;53.394;10.414;2024-01-30T07:46:01;2.80;93.80
39519;DHT22;25200;53.394;10.414;2024-01-30T07:48:28;2.80;93.90
39519;DHT22;25200;53.394;10.414;2024-01-30T07:50:53;2.80;93.80
39519;DHT22;25200;53.394;10.414;2024-01-30T07:53:19;2.90;93.90
39519;DHT22;25200;53.394;10.414;2024-01-30T07:55:45;2.90;93.80
39519;DHT22;25200;53.394;10.414;2024-01-30T07:58:12;2.90;93.90
39519;DHT22;25200;53.394;10.414;2024-01-30T08:00:38;2.90;93.90
39519;DHT22;25200;53.394;10.414;2024-01-30T08:03:04;2.90;93.90
39519;DHT22;25200;53.394;10.414;2024-01-30T08:05:30;2.90;94.00
39519;DHT22;25200;53.394;10.414;2024-01-30T08:07:55;2.90;94.00
39519;DHT22;25200;53.394;10.414;2024-01-30T08:10:21;3.00;94.00
39519;DHT22;25200;53.394;10.414;2024-01-30T08:12:47;3.00;94.00
39519;DHT22;25200;53.394;10.414;2024-01-30T08:15:12;3.00;94.00
39519;DHT22;25200;53.394;10.414;2024-01-30T08:17:39;3.10;94.10
39519;DHT22;25200;53.394;10.414;2024-01-30T08:20:05;3.10;94.00
39519;DHT22;25200;53.394;10.414;2024-01-30T08:22:31;3.10;94.00
39519;DHT22;25200;53.394;10.414;2024-01-30T08:24:57;3.20;94.00
39519;DHT22;25200;53.394;10.414;2024-01-30T08:27:22;3.20;93.90
39519;DHT22;25200;53.394;10.414;2024-01-30T08:29:48;3.20;93.90
39519;DHT22;25200;53.394;10.414;2024-01-30T08:32:15;3.20;93.90
39519;DHT22;25200;53.394;10.414;2024-01-30T08:34:41;3.20;93.90
39519;DHT22;25200;53.394;10.414;2024-01-30T08:37:07;3.30;93.90
39519;DHT22;25200;53.394;10.414;2024-01-30T08:39:32;3.30;93.90
39519;DHT22;25200;53.394;10.414;2024-01-30T08:41:58;3.30;93.90
39519;DHT22;25200;53.394;10.414;2024-01-30T08:44:24;3.40;93.90
39519;DHT22;25200;53.394;10.414;2024-01-30T08:46:49;3.40;93.90
39519;DHT22;25200;53.394;10.414;2024-01-30T08:49:20;3.40;93.90
39519;DHT22;25200;53.394;10.414;2024-01-30T08:51:45;3.40;93.90
39519;DHT22;25200;53.394;10.414;2024-01-30T08:54:11;3.50;93.90
39519;DHT22;25200;53.394;10.414;2024-01-30T08:56:37;3.50;93.90
39519;DHT22;25200;53.394;10.414;2024-01-30T08:59:02;3.50;93.90
39519;DHT22;25200;53.394;10.414;2024-01-30T09:01:28;3.60;94.00
39519;DHT22;25200;53.394;10.414;2024-01-30T09:03:53;3.60;93.90
39519;DHT22;25200;53.394;10.414;2024-01-30T09:06:19;3.70;94.00
39519;DHT22;25200;53.394;10.414;2024-01-30T09:08:45;3.80;94.00
39519;DHT22;25200;53.394;10.414;2024-01-30T09:11:12;3.80;94.00
39519;DHT22;25200;53.394;10.414;2024-01-30T09:13:38;3.90;94.20
39519;DHT22;25200;53.394;10.414;2024-01-30T09:16:04;3.90;94.30
39519;DHT22;25200;53.394;10.414;2024-01-30T09:18:30;4.00;94.20
39519;DHT22;25200;53.394;10.414;2024-01-30T09:20:56;4.00;94.20
39519;DHT22;25200;53.394;10.414;2024-01-30T09:23:22;4.10;94.40
39519;DHT22;25200;53.394;10.414;2024-01-30T09:25:47;4.10;94.40
39519;DHT22;25200;53.394;10.414;2024-01-30T09:28:13;4.20;94.50
39519;DHT22;25200;53.394;10.414;2024-01-30T09:30:39;4.30;94.60
39519;DHT22;25200;53.394;10.414;2024-01-30T09:33:06;4.40;94.70
39519;DHT22;25200;53.394;10.414;2024-01-30T09:35:31;4.40;94.60
39519;DHT22;25200;53.394;10.414;2024-01-30T09:37:57;4.50;94.60
39519;DHT22;25200;53.394;10.414;2024-01-30T09:40:24;4.60;94.70
39519;DHT22;25200;53.394;10.414;2024-01-30T09:42:50;4.70;94.80
39519;DHT22;25200;53.394;10.414;2024-01-30T09:45:18;4.70;94.80
39519;DHT22;25200;53.394;10.414;2024-01-30T09:47:45;4.80;94.80
39519;DHT22;25200;53.394;10.414;2024-01-30T09:50:12;4.90;94.90
39519;DHT22;25200;53.394;10.414;2024-01-30T09:52:38;5.00;94.90
39519;DHT22;25200;53.394;10.414;2024-01-30T09:55:08;5.10;95.00
39519;DHT22;25200;53.394;10.414;2024-01-30T09:57:36;5.20;95.00
39519;DHT22;25200;53.394;10.414;2024-01-30T10:00:03;5.30;95.10
39519;DHT22;25200;53.394;10.414;2024-01-30T10:02:31;5.30;95.10
39519;DHT22;25200;53.394;10.414;2024-01-30T10:04:57;5.40;95.10
39519;DHT22;25200;53.394;10.414;2024-01-30T10:07:22;5.50;95.20
39519;DHT22;25200;53.394;10.414;2024-01-30T10:09:48;5.60;95.30
39519;DHT22;25200;53.394;10.414;2024-01-30T10:12:15;5.70;95.50
39519;DHT22;25200;53.394;10.414;2024-01-30T10:14:42;5.80;95.40
39519;DHT22;25200;53.394;10.414;2024-01-30T10:17:08;5.80;95.40
39519;DHT22;25200;53.394;10.414;2024-01-30T10:19:35;5.90;95.50
39519;DHT22;25200;53.394;10.414;2024-01-30T10:22:01;6.00;95.50
39519;DHT22;25200;53.394;10.414;2024-01-30T10:24:27;6.10;95.50
39519;DHT22;25200;53.394;10.414;2024-01-30T10:26:54;6.20;95.50
39519;DHT22;25200;53.394;10.414;2024-01-30T10:29:20;6.30;95.70
39519;DHT22;25200;53.394;10.414;2024-01-30T10:31:46;6.40;95.70
39519;DHT22;25200;53.394;10.414;2024-01-30T10:34:13;6.40;95.80
39519;DHT22;25200;53.394;10.414;2024-01-30T10:36:43;6.50;95.70
39519;DHT22;25200;53.394;10.414;2024-01-30T10:39:13;6.70;95.90
39519;DHT22;25200;53.394;10.414;2024-01-30T10:41:44;6.80;95.90
39519;DHT22;25200;53.394;10.414;2024-01-30T10:44:17;6.90;96.10
39519;DHT22;25200;53.394;10.414;2024-01-30T10:46:45;7.00;96.10
39519;DHT22;25200;53.394;10.414;2024-01-30T10:49:13;7.10;96.40
39519;DHT22;25200;53.394;10.414;2024-01-30T10:51:40;7.20;96.30
39519;DHT22;25200;53.394;10.414;2024-01-30T10:54:06;7.30;96.40
39519;DHT22;25200;53.394;10.414;2024-01-30T10:56:33;7.50;96.50
39519;DHT22;25200;53.394;10.414;2024-01-30T10:59:00;7.60;96.50
39519;DHT22;25200;53.394;10.414;2024-01-30T11:01:27;7.60;96.50
39519;DHT22;25200;53.394;10.414;2024-01-30T11:03:54;7.70;96.60
39519;DHT22;25200;53.394;10.414;2024-01-30T11:06:24;7.80;96.40
39519;DHT22;25200;53.394;10.414;2024-01-30T11:09:02;7.90;96.10
39519;DHT22;25200;53.394;10.414;2024-01-30T11:11:57;7.90;96.30
39519;DHT22;25200;53.394;10.414;2024-01-30T11:14:28;8.00;96.30
39519;DHT22;25200;53.394;10.414;2024-01-30T11:16:57;8.10;96.30
39519;DHT22;25200;53.394;10.414;2024-01-30T11:19:30;8.20;96.20
39519;DHT22;25200;53.394;10.414;2024-01-30T11:21:56;8.30;96.60
39519;DHT22;25200;53.394;10.414;2024-01-30T11:24:23;8.30;96.50
39519;DHT22;25200;53.394;10.414;2024-01-30T11:26:49;8.40;96.90
39519;DHT22;25200;53.394;10.414;2024-01-30T11:29:17;8.50;96.50
39519;DHT22;25200;53.394;10.414;2024-01-30T11:31:53;8.60;96.50
39519;DHT22;25200;53.394;10.414;2024-01-30T11:34:20;8.70;96.60
39519;DHT22;25200;53.394;10.414;2024-01-30T11:36:52;8.70;96.60
39519;DHT22;25200;53.394;10.414;2024-01-30T11:39:28;8.80;96.50
39519;DHT22;25200;53.394;10.414;2024-01-30T11:41:55;8.90;96.50
39519;DHT22;25200;53.394;10.414;2024-01-30T11:44:21;8.90;96.50
39519;DHT22;25200;53.394;10.414;2024-01-30T11:46:51;9.00;96.20
39519;DHT22;25200;53.394;10.414;2024-01-30T11:49:17;9.10;96.50
39519;DHT22;25200;53.394;10.414;2024-01-30T11:51:45;9.10;96.40
39519;DHT22;25200;53.394;10.414;2024-01-30T11:54:11;9.10;96.40
39519;DHT22;25200;53.394;10.414;2024-01-30T11:56:37;9.20;96.30
39519;DHT22;25200;53.394;10.414;2024-01-30T11:59:04;9.20;96.30
39519;DHT22;25200;53.394;10.414;2024-01-30T12:01:30;9.20;96.30
39519;DHT22;25200;53.394;10.414;2024-01-30T12:03:57;9.30;96.30
39519;DHT22;25200;53.394;10.414;2024-01-30T12:06:23;9.30;96.20
39519;DHT22;25200;53.394;10.414;2024-01-30T12:08:59;9.30;96.20
39519;DHT22;25200;53.394;10.414;2024-01-30T12:11:25;9.40;96.20
39519;DHT22;25200;53.394;10.414;2024-01-30T12:13:52;9.40;96.20
39519;DHT22;25200;53.394;10.414;2024-01-30T12:16:18;9.40;96.20
39519;DHT22;25200;53.394;10.414;2024-01-30T12:18:44;9.40;96.20
39519;DHT22;25200;53.394;10.414;2024-01-30T12:21:10;9.40;96.20
39519;DHT22;25200;53.394;10.414;2024-01-30T12:23:36;9.50;96.10
39519;DHT22;25200;53.394;10.414;2024-01-30T12:26:02;9.50;96.20
39519;DHT22;25200;53.394;10.414;2024-01-30T12:28:35;9.50;96.10
39519;DHT22;25200;53.394;10.414;2024-01-30T12:31:04;9.50;96.10
39519;DHT22;25200;53.394;10.414;2024-01-30T12:33:30;9.60;96.10
39519;DHT22;25200;53.394;10.414;2024-01-30T12:35:56;9.60;96.10
39519;DHT22;25200;53.394;10.414;2024-01-30T12:38:23;9.60;96.10
39519;DHT22;25200;53.394;10.414;2024-01-30T12:40:53;9.70;96.20
39519;DHT22;25200;53.394;10.414;2024-01-30T12:43:19;9.70;96.00
39519;DHT22;25200;53.394;10.414;2024-01-30T12:45:45;9.80;95.90
39519;DHT22;25200;53.394;10.414;2024-01-30T12:48:12;9.80;96.00
39519;DHT22;25200;53.394;10.414;2024-01-30T12:50:37;9.80;95.80
39519;DHT22;25200;53.394;10.414;2024-01-30T12:53:03;9.80;95.80
39519;DHT22;25200;53.394;10.414;2024-01-30T12:55:30;9.90;95.60
39519;DHT22;25200;53.394;10.414;2024-01-30T12:57:55;9.80;95.70
39519;DHT22;25200;53.394;10.414;2024-01-30T13:00:21;9.90;95.80
39519;DHT22;25200;53.394;10.414;2024-01-30T13:02:48;9.90;95.80
39519;DHT22;25200;53.394;10.414;2024-01-30T13:05:14;9.90;95.70
39519;DHT22;25200;53.394;10.414;2024-01-30T13:07:39;9.90;95.70
39519;DHT22;25200;53.394;10.414;2024-01-30T13:10:05;9.90;95.70
39519;DHT22;25200;53.394;10.414;2024-01-30T13:12:31;9.90;95.70
39519;DHT22;25200;53.394;10.414;2024-01-30T13:14:58;9.90;95.60
39519;DHT22;25200;53.394;10.414;2024-01-30T13:17:26;9.90;95.50
39519;DHT22;25200;53.394;10.414;2024-01-30T13:19:52;9.90;95.60
39519;DHT22;25200;53.394;10.414;2024-01-30T13:22:19;9.90;95.60
39519;DHT22;25200;53.394;10.414;2024-01-30T13:24:47;9.90;95.50
39519;DHT22;25200;53.394;10.414;2024-01-30T13:27:12;9.90;95.60
39519;DHT22;25200;53.394;10.414;2024-01-30T13:29:38;9.90;95.60
39519;DHT22;25200;53.394;10.414;2024-01-30T13:32:04;9.90;95.60
39519;DHT22;25200;53.394;10.414;2024-01-30T13:34:30;9.90;95.70
39519;DHT22;25200;53.394;10.414;2024-01-30T13:36:55;9.90;95.60
39519;DHT22;25200;53.394;10.414;2024-01-30T13:39:22;9.90;95.60
39519;DHT22;25200;53.394;10.414;2024-01-30T13:41:48;9.90;95.60
39519;DHT22;25200;53.394;10.414;2024-01-30T13:44:15;9.90;95.60
39519;DHT22;25200;53.394;10.414;2024-01-30T13:46:42;9.90;95.60
39519;DHT22;25200;53.394;10.414;2024-01-30T13:49:07;9.90;95.60
39519;DHT22;25200;53.394;10.414;2024-01-30T13:51:33;9.90;95.60
39519;DHT22;25200;53.394;10.414;2024-01-30T13:53:59;9.90;95.60
39519;DHT22;25200;53.394;10.414;2024-01-30T13:56:24;9.90;95.60
39519;DHT22;25200;53.394;10.414;2024-01-30T13:58:52;9.90;95.60
39519;DHT22;25200;53.394;10.414;2024-01-30T14:01:18;9.90;95.50
39519;DHT22;25200;53.394;10.414;2024-01-30T14:03:43;9.90;95.60
39519;DHT22;25200;53.394;10.414;2024-01-30T14:06:10;9.90;95.60
39519;DHT22;25200;53.394;10.414;2024-01-30T14:08:35;10.00;95.70
39519;DHT22;25200;53.394;10.414;2024-01-30T14:11:01;10.00;95.70
39519;DHT22;25200;53.394;10.414;2024-01-30T14:13:27;10.00;95.70
39519;DHT22;25200;53.394;10.414;2024-01-30T14:15:53;10.00;95.70
39519;DHT22;25200;53.394;10.414;2024-01-30T14:18:18;10.00;95.70
39519;DHT22;25200;53.394;10.414;2024-01-30T14:20:44;10.00;95.80
39519;DHT22;25200;53.394;10.414;2024-01-30T14:23:10;10.00;95.80
39519;DHT22;25200;53.394;10.414;2024-01-30T14:25:35;10.00;95.90
39519;DHT22;25200;53.394;10.414;2024-01-30T14:28:01;10.00;95.80
39519;DHT22;25200;53.394;10.414;2024-01-30T14:30:27;10.00;95.90
39519;DHT22;25200;53.394;10.414;2024-01-30T14:32:52;10.00;95.90
39519;DHT22;25200;53.394;10.414;2024-01-30T14:35:19;10.00;95.90
39519;DHT22;25200;53.394;10.414;2024-01-30T14:37:45;10.00;95.90
39519;DHT22;25200;53.394;10.414;2024-01-30T14:40:11;10.10;95.90
39519;DHT22;25200;53.394;10.414;2024-01-30T14:42:36;10.10;95.90
39519;DHT22;25200;53.394;10.414;2024-01-30T14:45:03;10.10;95.90
39519;DHT22;25200;53.394;10.414;2024-01-30T14:47:29;10.10;95.90
39519;DHT22;25200;53.394;10.414;2024-01-30T14:49:56;10.10;95.90
39519;DHT22;25200;53.394;10.414;2024-01-30T14:52:23;10.10;95.90
39519;DHT22;25200;53.394;10.414;2024-01-30T14:54:48;10.10;95.90
39519;DHT22;25200;53.394;10.414;2024-01-30T14:57:14;10.20;95.90
39519;DHT22;25200;53.394;10.414;2024-01-30T14:59:40;10.20;95.90
39519;DHT22;25200;53.394;10.414;2024-01-30T15:02:06;10.20;95.90
39519;DHT22;25200;53.394;10.414;2024-01-30T15:04:31;10.20;95.90
39519;DHT22;25200;53.394;10.414;2024-01-30T15:06:57;10.20;95.90
39519;DHT22;25200;53.394;10.414;2024-01-30T15:09:23;10.20;95.80
39519;DHT22;25200;53.394;10.414;2024-01-30T15:11:49;10.20;95.80
39519;DHT22;25200;53.394;10.414;2024-01-30T15:14:15;10.20;95.80
39519;DHT22;25200;53.394;10.414;2024-01-30T15:16:41;10.20;95.80
39519;DHT22;25200;53.394;10.414;2024-01-30T15:19:07;10.20;95.80
39519;DHT22;25200;53.394;10.414;2024-01-30T15:21:33;10.20;95.80
39519;DHT22;25200;53.394;10.414;2024-01-30T15:23:58;10.20;95.80